sensor_id;sensor_type;location;lat;lon;timestamp;temperature;humidity
55701;DHT22;41604;43.142;20.512;2024-03-08T00:02:17;205.40;2252.80
55701;DHT22;41604;43.142;20.512;2024-03-08T00:04:43;205.40;2252.80
55701;DHT22;41604;43.142;20.512;2024-03-08T00:07:10;205.40;2252.80
55701;DHT22;41604;43.142;20.512;2024-03-08T00:09:36;205.40;2252.80
55701;DHT22;41604;43.142;20.512;2024-03-08T00:12:02;205.40;2252.80
55701;DHT22;41604;43.142;20.512;2024-03-08T00:14:27;205.30;2252.80
55701;DHT22;41604;43.142;20.512;2024-03-08T00:16:53;205.30;2252.80
55701;DHT22;41604;43.142;20.512;2024-03-08T00:19:19;205.30;2252.80
55701;DHT22;41604;43.142;20.512;2024-03-08T00:21:45;205.30;2252.80
55701;DHT22;41604;43.142;20.512;2024-03-08T00:24:11;205.30;2252.80
55701;DHT22;41604;43.142;20.512;2024-03-08T00:26:37;205.30;2252.80
55701;DHT22;41604;43.142;20.512;2024-03-08T00:29:03;205.20;2252.80
55701;DHT22;41604;43.142;20.512;2024-03-08T00:31:30;205.20;2252.80
55701;DHT22;41604;43.142;20.512;2024-03-08T00:33:56;205.20;2252.80
55701;DHT22;41604;43.142;20.512;2024-03-08T00:36:23;205.30;2252.80
55701;DHT22;41604;43.142;20.512;2024-03-08T00:38:49;205.30;2252.80
55701;DHT22;41604;43.142;20.512;2024-03-08T00:41:14;205.30;2252.80
55701;DHT22;41604;43.142;20.512;2024-03-08T00:43:40;205.30;2252.80
55701;DHT22;41604;43.142;20.512;2024-03-08T00:46:06;205.20;2252.80
55701;DHT22;41604;43.142;20.512;2024-03-08T00:48:32;205.20;2252.80
55701;DHT22;41604;43.142;20.512;2024-03-08T00:50:58;205.30;2252.80
55701;DHT22;41604;43.142;20.512;2024-03-08T00:53:24;205.30;2252.80
55701;DHT22;41604;43.142;20.512;2024-03-08T00:55:49;205.30;2252.80
55701;DHT22;41604;43.142;20.512;2024-03-08T00:58:15;205.30;2252.80
55701;DHT22;41604;43.142;20.512;2024-03-08T01:00:41;205.40;2252.80
55701;DHT22;41604;43.142;20.512;2024-03-08T01:03:07;205.50;2252.80
55701;DHT22;41604;43.142;20.512;2024-03-08T01:05:33;205.50;2252.80
55701;DHT22;41604;43.142;20.512;2024-03-08T01:08:01;205.50;2252.80
55701;DHT22;41604;43.142;20.512;2024-03-08T01:10:29;205.50;2252.80
55701;DHT22;41604;43.142;20.512;2024-03-08T01:12:54;205.60;2252.80
55701;DHT22;41604;43.142;20.512;2024-03-08T01:15:23;205.50;2252.80
55701;DHT22;41604;43.142;20.512;2024-03-08T01:17:49;205.40;2252.80
55701;DHT22;41604;43.142;20.512;2024-03-08T01:20:15;205.40;2252.80
55701;DHT22;41604;43.142;20.512;2024-03-08T01:22:41;205.40;2252.80
55701;DHT22;41604;43.142;20.512;2024-03-08T01:25:07;205.40;2252.80
55701;DHT22;41604;43.142;20.512;2024-03-08T01:27:34;205.40;2252.80
55701;DHT22;41604;43.142;20.512;2024-03-08T01:30:01;205.40;2252.80
55701;DHT22;41604;43.142;20.512;2024-03-08T01:32:26;205.40;2252.80
55701;DHT22;41604;43.142;20.512;2024-03-08T01:34:53;205.30;2252.80
55701;DHT22;41604;43.142;20.512;2024-03-08T01:37:19;205.30;2252.80
55701;DHT22;41604;43.142;20.512;2024-03-08T01:39:45;205.30;2252.80
55701;DHT22;41604;43.142;20.512;2024-03-08T01:42:11;205.30;2252.80
55701;DHT22;41604;43.142;20.512;2024-03-08T01:44:39;205.20;2252.80
55701;DHT22;41604;43.142;20.512;2024-03-08T01:47:05;205.20;2252.80
55701;DHT22;41604;43.142;20.512;2024-03-08T01:49:31;205.20;2252.80
55701;DHT22;41604;43.142;20.512;2024-03-08T01:51:57;205.20;2252.80
55701;DHT22;41604;43.142;20.512;2024-03-08T01:54:23;205.20;2252.80
55701;DHT22;41604;43.142;20.512;2024-03-08T01:56:50;205.20;2252.80
55701;DHT22;41604;43.142;20.512;2024-03-08T01:59:16;205.20;2252.80
55701;DHT22;41604;43.142;20.512;2024-03-08T02:01:43;205.10;2252.80
55701;DHT22;41604;43.142;20.512;2024-03-08T02:04:09;205.00;2252.80
55701;DHT22;41604;43.142;20.512;2024-03-08T02:06:35;205.10;2252.80
55701;DHT22;41604;43.142;20.512;2024-03-08T02:09:01;205.10;2252.80
55701;DHT22;41604;43.142;20.512;2024-03-08T02:11:32;205.20;2252.80
55701;DHT22;41604;43.142;20.512;2024-03-08T02:13:59;205.20;2252.80
55701;DHT22;41604;43.142;20.512;2024-03-08T02:16:25;205.20;2252.80
55701;DHT22;41604;43.142;20.512;2024-03-08T02:18:51;205.20;2252.80
55701;DHT22;41604;43.142;20.512;2024-03-08T02:21:17;205.20;2252.80
55701;DHT22;41604;43.142;20.512;2024-03-08T02:23:44;205.10;2252.80
55701;DHT22;41604;43.142;20.512;2024-03-08T02:26:10;205.20;2252.80
55701;DHT22;41604;43.142;20.512;2024-03-08T02:28:36;205.20;2252.80
55701;DHT22;41604;43.142;20.512;2024-03-08T02:31:02;205.30;2252.80
55701;DHT22;41604;43.142;20.512;2024-03-08T02:33:34;205.20;2252.80
55701;DHT22;41604;43.142;20.512;2024-03-08T02:35:59;205.20;2252.80
55701;DHT22;41604;43.142;20.512;2024-03-08T02:38:26;205.20;2252.80
55701;DHT22;41604;43.142;20.512;2024-03-08T02:40:52;205.20;2252.80
55701;DHT22;41604;43.142;20.512;2024-03-08T02:43:20;205.10;2252.80
55701;DHT22;41604;43.142;20.512;2024-03-08T02:45:50;205.10;2252.80
55701;DHT22;41604;43.142;20.512;2024-03-08T02:48:18;205.10;2252.80
55701;DHT22;41604;43.142;20.512;2024-03-08T02:50:44;205.10;2252.80
55701;DHT22;41604;43.142;20.512;2024-03-08T02:53:11;205.20;2252.80
55701;DHT22;41604;43.142;20.512;2024-03-08T02:55:41;205.20;2252.80
55701;DHT22;41604;43.142;20.512;2024-03-08T02:58:07;205.20;2252.80
55701;DHT22;41604;43.142;20.512;2024-03-08T03:00:37;205.20;2252.80
55701;DHT22;41604;43.142;20.512;2024-03-08T03:03:07;205.20;2252.80
55701;DHT22;41604;43.142;20.512;2024-03-08T03:05:33;205.10;2252.80
55701;DHT22;41604;43.142;20.512;2024-03-08T03:08:02;205.20;2252.80
55701;DHT22;41604;43.142;20.512;2024-03-08T03:10:29;205.20;2252.80
55701;DHT22;41604;43.142;20.512;2024-03-08T03:12:55;205.10;2252.80
55701;DHT22;41604;43.142;20.512;2024-03-08T03:15:21;205.10;2252.80
55701;DHT22;41604;43.142;20.512;2024-03-08T03:17:51;205.10;2252.80
55701;DHT22;41604;43.142;20.512;2024-03-08T03:20:18;205.10;2252.80
55701;DHT22;41604;43.142;20.512;2024-03-08T03:22:52;205.10;2252.80
55701;DHT22;41604;43.142;20.512;2024-03-08T03:25:19;205.10;2252.80
55701;DHT22;41604;43.142;20.512;2024-03-08T03:27:51;205.10;2252.80
55701;DHT22;41604;43.142;20.512;2024-03-08T03:30:17;205.10;2252.80
55701;DHT22;41604;43.142;20.512;2024-03-08T03:32:49;205.10;2252.80
55701;DHT22;41604;43.142;20.512;2024-03-08T03:35:19;205.20;2252.80
55701;DHT22;41604;43.142;20.512;2024-03-08T03:37:46;205.20;2252.80
55701;DHT22;41604;43.142;20.512;2024-03-08T03:40:29;205.20;2252.80
55701;DHT22;41604;43.142;20.512;2024-03-08T03:42:55;205.10;2252.80
55701;DHT22;41604;43.142;20.512;2024-03-08T03:45:22;205.20;2252.80
55701;DHT22;41604;43.142;20.512;2024-03-08T03:47:47;205.20;2252.80
55701;DHT22;41604;43.142;20.512;2024-03-08T03:50:13;205.20;2252.80
55701;DHT22;41604;43.142;20.512;2024-03-08T03:52:39;205.10;2252.80
55701;DHT22;41604;43.142;20.512;2024-03-08T03:55:05;205.10;2252.80
55701;DHT22;41604;43.142;20.512;2024-03-08T03:57:31;205.10;2252.80
55701;DHT22;41604;43.142;20.512;2024-03-08T03:59:57;205.10;2252.80
55701;DHT22;41604;43.142;20.512;2024-03-08T04:02:28;205.20;2252.80
55701;DHT22;41604;43.142;20.512;2024-03-08T04:04:54;205.20;2252.80
55701;DHT22;41604;43.142;20.512;2024-03-08T04:07:22;205.20;2252.80
55701;DHT22;41604;43.142;20.512;2024-03-08T04:09:48;205.20;2252.80
55701;DHT22;41604;43.142;20.512;2024-03-08T04:12:14;205.10;2252.80
55701;DHT22;41604;43.142;20.512;2024-03-08T04:14:42;205.20;2252.80
55701;DHT22;41604;43.142;20.512;2024-03-08T04:17:08;205.20;2252.80
55701;DHT22;41604;43.142;20.512;2024-03-08T04:19:38;205.20;2252.80
55701;DHT22;41604;43.142;20.512;2024-03-08T04:22:06;205.10;2252.80
55701;DHT22;41604;43.142;20.512;2024-03-08T04:24:33;205.10;2252.80
55701;DHT22;41604;43.142;20.512;2024-03-08T04:26:59;205.10;2252.80
55701;DHT22;41604;43.142;20.512;2024-03-08T04:29:25;205.10;2252.80
55701;DHT22;41604;43.142;20.512;2024-03-08T04:31:52;205.00;2252.80
55701;DHT22;41604;43.142;20.512;2024-03-08T04:34:21;205.00;2252.80
55701;DHT22;41604;43.142;20.512;2024-03-08T04:36:48;205.00;2252.80
55701;DHT22;41604;43.142;20.512;2024-03-08T04:39:14;204.90;2252.80
55701;DHT22;41604;43.142;20.512;2024-03-08T04:41:41;205.00;2252.80
55701;DHT22;41604;43.142;20.512;2024-03-08T04:44:12;205.00;2252.80
55701;DHT22;41604;43.142;20.512;2024-03-08T04:46:38;205.10;2252.80
55701;DHT22;41604;43.142;20.512;2024-03-08T04:49:04;205.00;2252.80
55701;DHT22;41604;43.142;20.512;2024-03-08T04:51:30;205.10;2252.80
55701;DHT22;41604;43.142;20.512;2024-03-08T04:53:56;205.20;2252.80
55701;DHT22;41604;43.142;20.512;2024-03-08T04:56:22;205.50;2252.80
55701;DHT22;41604;43.142;20.512;2024-03-08T04:58:48;205.50;2252.80
55701;DHT22;41604;43.142;20.512;2024-03-08T05:01:15;205.30;2252.80
55701;DHT22;41604;43.142;20.512;2024-03-08T05:03:41;205.10;2252.80
55701;DHT22;41604;43.142;20.512;2024-03-08T05:06:07;205.30;2252.80
55701;DHT22;41604;43.142;20.512;2024-03-08T05:08:33;205.20;2252.80
55701;DHT22;41604;43.142;20.512;2024-03-08T05:10:59;205.30;2252.80
55701;DHT22;41604;43.142;20.512;2024-03-08T05:13:28;205.40;2252.80
55701;DHT22;41604;43.142;20.512;2024-03-08T05:15:53;205.30;2252.80
55701;DHT22;41604;43.142;20.512;2024-03-08T05:18:19;205.20;2252.80
55701;DHT22;41604;43.142;20.512;2024-03-08T05:20:47;205.10;2252.80
55701;DHT22;41604;43.142;20.512;2024-03-08T05:23:13;205.20;2252.80
55701;DHT22;41604;43.142;20.512;2024-03-08T05:25:39;205.40;2252.80
55701;DHT22;41604;43.142;20.512;2024-03-08T05:28:05;205.20;2252.80
55701;DHT22;41604;43.142;20.512;2024-03-08T05:30:30;205.30;2252.80
55701;DHT22;41604;43.142;20.512;2024-03-08T05:32:57;205.40;2252.80
55701;DHT22;41604;43.142;20.512;2024-03-08T05:35:23;205.40;2252.80
55701;DHT22;41604;43.142;20.512;2024-03-08T05:37:50;205.20;2252.80
55701;DHT22;41604;43.142;20.512;2024-03-08T05:40:15;205.40;2252.80
55701;DHT22;41604;43.142;20.512;2024-03-08T05:42:41;205.40;2252.80
55701;DHT22;41604;43.142;20.512;2024-03-08T05:45:07;205.50;2252.80
55701;DHT22;41604;43.142;20.512;2024-03-08T05:47:35;205.40;2252.80
55701;DHT22;41604;43.142;20.512;2024-03-08T05:50:01;205.30;2252.80
55701;DHT22;41604;43.142;20.512;2024-03-08T05:52:27;205.10;2252.80
55701;DHT22;41604;43.142;20.512;2024-03-08T05:54:53;205.10;2252.80
55701;DHT22;41604;43.142;20.512;2024-03-08T05:57:19;205.10;2252.80
55701;DHT22;41604;43.142;20.512;2024-03-08T05:59:45;205.30;2252.80
55701;DHT22;41604;43.142;20.512;2024-03-08T06:02:11;205.40;2252.80
55701;DHT22;41604;43.142;20.512;2024-03-08T06:04:36;205.40;2252.80
55701;DHT22;41604;43.142;20.512;2024-03-08T06:07:03;205.60;2252.80
55701;DHT22;41604;43.142;20.512;2024-03-08T06:09:29;205.50;2252.80
55701;DHT22;41604;43.142;20.512;2024-03-08T06:11:55;205.40;2252.80
55701;DHT22;41604;43.142;20.512;2024-03-08T06:14:22;205.50;2252.80
55701;DHT22;41604;43.142;20.512;2024-03-08T06:16:48;205.50;2252.80
55701;DHT22;41604;43.142;20.512;2024-03-08T06:19:17;230.40;2252.80
55701;DHT22;41604;43.142;20.512;2024-03-08T06:21:43;205.50;2252.80
55701;DHT22;41604;43.142;20.512;2024-03-08T06:24:09;205.60;2252.80
55701;DHT22;41604;43.142;20.512;2024-03-08T06:26:35;205.60;2252.80
55701;DHT22;41604;43.142;20.512;2024-03-08T06:29:03;230.50;2252.80
55701;DHT22;41604;43.142;20.512;2024-03-08T06:31:32;205.70;2252.80
55701;DHT22;41604;43.142;20.512;2024-03-08T06:33:58;205.60;2252.80
55701;DHT22;41604;43.142;20.512;2024-03-08T06:36:24;230.40;2252.80
55701;DHT22;41604;43.142;20.512;2024-03-08T06:38:50;205.60;2252.80
55701;DHT22;41604;43.142;20.512;2024-03-08T06:41:17;230.40;2252.80
55701;DHT22;41604;43.142;20.512;2024-03-08T06:43:43;230.40;2252.80
55701;DHT22;41604;43.142;20.512;2024-03-08T06:46:09;230.40;2252.80
55701;DHT22;41604;43.142;20.512;2024-03-08T06:48:38;205.70;2252.80
55701;DHT22;41604;43.142;20.512;2024-03-08T06:51:04;205.70;2252.80
55701;DHT22;41604;43.142;20.512;2024-03-08T06:53:31;230.40;2252.80
55701;DHT22;41604;43.142;20.512;2024-03-08T06:55:57;230.40;2252.80
55701;DHT22;41604;43.142;20.512;2024-03-08T06:58:23;230.50;2252.80
55701;DHT22;41604;43.142;20.512;2024-03-08T07:00:49;230.90;2252.80
55701;DHT22;41604;43.142;20.512;2024-03-08T07:03:18;231.10;2252.80
55701;DHT22;41604;43.142;20.512;2024-03-08T07:05:44;230.90;2252.80
55701;DHT22;41604;43.142;20.512;2024-03-08T07:08:10;230.90;2252.80
55701;DHT22;41604;43.142;20.512;2024-03-08T07:10:36;231.30;2252.80
55701;DHT22;41604;43.142;20.512;2024-03-08T07:13:03;231.30;2252.80
55701;DHT22;41604;43.142;20.512;2024-03-08T07:15:29;230.90;2252.80
55701;DHT22;41604;43.142;20.512;2024-03-08T07:17:55;230.90;2252.80
55701;DHT22;41604;43.142;20.512;2024-03-08T07:20:21;230.90;2252.80
55701;DHT22;41604;43.142;20.512;2024-03-08T07:22:48;230.90;2252.80
55701;DHT22;41604;43.142;20.512;2024-03-08T07:25:14;230.90;2252.80
55701;DHT22;41604;43.142;20.512;2024-03-08T07:27:51;231.00;2252.80
55701;DHT22;41604;43.142;20.512;2024-03-08T07:30:18;231.00;2252.80
55701;DHT22;41604;43.142;20.512;2024-03-08T07:33:02;231.10;2252.80
55701;DHT22;41604;43.142;20.512;2024-03-08T07:35:29;231.00;2252.80
55701;DHT22;41604;43.142;20.512;2024-03-08T07:37:55;231.20;2252.80
55701;DHT22;41604;43.142;20.512;2024-03-08T07:40:21;256.00;2252.80
55701;DHT22;41604;43.142;20.512;2024-03-08T07:42:49;256.00;2252.80
55701;DHT22;41604;43.142;20.512;2024-03-08T07:45:15;256.10;2252.80
55701;DHT22;41604;43.142;20.512;2024-03-08T07:47:42;256.20;2252.80
55701;DHT22;41604;43.142;20.512;2024-03-08T07:50:08;256.40;2252.80
55701;DHT22;41604;43.142;20.512;2024-03-08T07:52:35;256.40;2252.80
55701;DHT22;41604;43.142;20.512;2024-03-08T07:55:02;256.40;2252.80
55701;DHT22;41604;43.142;20.512;2024-03-08T07:57:29;256.50;2252.80
55701;DHT22;41604;43.142;20.512;2024-03-08T07:59:55;256.40;2252.80
55701;DHT22;41604;43.142;20.512;2024-03-08T08:02:21;256.30;2252.80
55701;DHT22;41604;43.142;20.512;2024-03-08T08:04:47;256.30;2252.80
55701;DHT22;41604;43.142;20.512;2024-03-08T08:07:13;256.40;2252.80
55701;DHT22;41604;43.142;20.512;2024-03-08T08:09:40;256.50;2252.80
55701;DHT22;41604;43.142;20.512;2024-03-08T08:12:10;256.60;2252.80
55701;DHT22;41604;43.142;20.512;2024-03-08T08:14:39;256.70;2252.80
55701;DHT22;41604;43.142;20.512;2024-03-08T08:17:05;256.60;2252.80
55701;DHT22;41604;43.142;20.512;2024-03-08T08:19:33;256.40;2252.80
55701;DHT22;41604;43.142;20.512;2024-03-08T08:22:01;256.50;2252.80
55701;DHT22;41604;43.142;20.512;2024-03-08T08:24:30;256.40;2252.80
55701;DHT22;41604;43.142;20.512;2024-03-08T08:26:56;256.40;2252.80
55701;DHT22;41604;43.142;20.512;2024-03-08T08:29:21;256.30;2252.80
55701;DHT22;41604;43.142;20.512;2024-03-08T08:31:48;256.30;2252.80
55701;DHT22;41604;43.142;20.512;2024-03-08T08:34:16;256.40;2252.80
55701;DHT22;41604;43.142;20.512;2024-03-08T08:36:44;256.30;2252.80
55701;DHT22;41604;43.142;20.512;2024-03-08T08:39:11;256.50;2252.80
55701;DHT22;41604;43.142;20.512;2024-03-08T08:41:39;256.50;2252.80
55701;DHT22;41604;43.142;20.512;2024-03-08T08:44:07;256.50;2252.80
55701;DHT22;41604;43.142;20.512;2024-03-08T08:46:36;256.50;2252.80
55701;DHT22;41604;43.142;20.512;2024-03-08T08:49:03;256.60;2252.80
55701;DHT22;41604;43.142;20.512;2024-03-08T08:51:30;256.50;2252.80
55701;DHT22;41604;43.142;20.512;2024-03-08T08:53:59;256.60;2252.80
55701;DHT22;41604;43.142;20.512;2024-03-08T08:56:25;256.80;2252.80
55701;DHT22;41604;43.142;20.512;2024-03-08T08:58:52;256.90;2252.80
55701;DHT22;41604;43.142;20.512;2024-03-08T09:01:19;281.60;2278.40
55701;DHT22;41604;43.142;20.512;2024-03-08T09:03:45;256.90;2252.80
55701;DHT22;41604;43.142;20.512;2024-03-08T09:06:15;281.60;2278.40
55701;DHT22;41604;43.142;20.512;2024-03-08T09:08:42;281.70;2278.40
55701;DHT22;41604;43.142;20.512;2024-03-08T09:11:10;281.70;2278.40
55701;DHT22;41604;43.142;20.512;2024-03-08T09:13:36;281.60;2278.40
55701;DHT22;41604;43.142;20.512;2024-03-08T09:16:04;256.90;2252.80
55701;DHT22;41604;43.142;20.512;2024-03-08T09:18:32;256.90;2252.80
55701;DHT22;41604;43.142;20.512;2024-03-08T09:20:58;281.80;2278.40
55701;DHT22;41604;43.142;20.512;2024-03-08T09:23:25;282.00;2252.80
55701;DHT22;41604;43.142;20.512;2024-03-08T09:25:56;282.00;2227.20
55701;DHT22;41604;43.142;20.512;2024-03-08T09:28:24;282.20;2201.60
55701;DHT22;41604;43.142;20.512;2024-03-08T09:30:50;282.40;2201.60
55701;DHT22;41604;43.142;20.512;2024-03-08T09:33:16;282.50;2176.00
55701;DHT22;41604;43.142;20.512;2024-03-08T09:35:46;307.30;2227.20
55701;DHT22;41604;43.142;20.512;2024-03-08T09:38:14;307.40;2150.40
55701;DHT22;41604;43.142;20.512;2024-03-08T09:40:43;307.50;2099.20
55701;DHT22;41604;43.142;20.512;2024-03-08T09:43:12;307.60;2022.40
55701;DHT22;41604;43.142;20.512;2024-03-08T09:45:40;307.80;2022.40
55701;DHT22;41604;43.142;20.512;2024-03-08T09:48:16;307.70;2022.40
55701;DHT22;41604;43.142;20.512;2024-03-08T09:50:44;307.90;2022.40
55701;DHT22;41604;43.142;20.512;2024-03-08T09:53:13;307.90;1996.80
55701;DHT22;41604;43.142;20.512;2024-03-08T09:55:39;307.60;2048.00
55701;DHT22;41604;43.142;20.512;2024-03-08T09:58:09;307.70;2022.40
55701;DHT22;41604;43.142;20.512;2024-03-08T10:00:57;307.80;2048.00
55701;DHT22;41604;43.142;20.512;2024-03-08T10:03:23;333.00;2022.40
55701;DHT22;41604;43.142;20.512;2024-03-08T10:05:51;308.10;1996.80
55701;DHT22;41604;43.142;20.512;2024-03-08T10:08:17;307.90;2022.40
55701;DHT22;41604;43.142;20.512;2024-03-08T10:10:43;307.80;2022.40
55701;DHT22;41604;43.142;20.512;2024-03-08T10:13:10;307.90;2022.40
55701;DHT22;41604;43.142;20.512;2024-03-08T10:15:39;308.10;2022.40
55701;DHT22;41604;43.142;20.512;2024-03-08T10:20:32;333.60;1971.20
55701;DHT22;41604;43.142;20.512;2024-03-08T10:23:05;333.30;1996.80
55701;DHT22;41604;43.142;20.512;2024-03-08T10:25:32;333.30;1996.80
55701;DHT22;41604;43.142;20.512;2024-03-08T10:27:59;333.10;1971.20
55701;DHT22;41604;43.142;20.512;2024-03-08T10:30:25;333.00;1996.80
55701;DHT22;41604;43.142;20.512;2024-03-08T10:32:51;333.00;1971.20
55701;DHT22;41604;43.142;20.512;2024-03-08T10:35:17;333.00;1971.20
55701;DHT22;41604;43.142;20.512;2024-03-08T10:37:50;333.00;1971.20
55701;DHT22;41604;43.142;20.512;2024-03-08T10:40:27;333.10;1971.20
55701;DHT22;41604;43.142;20.512;2024-03-08T10:42:54;333.10;1945.60
55701;DHT22;41604;43.142;20.512;2024-03-08T10:53:19;333.10;1920.00
55701;DHT22;41604;43.142;20.512;2024-03-08T10:55:47;333.40;1894.40
55701;DHT22;41604;43.142;20.512;2024-03-08T10:58:14;358.50;1894.40
55701;DHT22;41604;43.142;20.512;2024-03-08T11:00:41;358.40;1868.80
55701;DHT22;41604;43.142;20.512;2024-03-08T11:03:07;358.50;1868.80
55701;DHT22;41604;43.142;20.512;2024-03-08T11:08:23;358.50;1843.20
55701;DHT22;41604;43.142;20.512;2024-03-08T11:10:55;358.80;1792.00
55701;DHT22;41604;43.142;20.512;2024-03-08T11:16:01;359.00;1740.80
55701;DHT22;41604;43.142;20.512;2024-03-08T11:18:33;358.80;1766.40
55701;DHT22;41604;43.142;20.512;2024-03-08T11:21:09;358.80;1766.40
55701;DHT22;41604;43.142;20.512;2024-03-08T11:23:38;358.70;1792.00
55701;DHT22;41604;43.142;20.512;2024-03-08T11:26:20;358.60;1792.00
55701;DHT22;41604;43.142;20.512;2024-03-08T11:28:46;358.60;1792.00
55701;DHT22;41604;43.142;20.512;2024-03-08T12:06:12;358.50;1792.00
55701;DHT22;41604;43.142;20.512;2024-03-08T12:08:39;359.20;1689.60
55701;DHT22;41604;43.142;20.512;2024-03-08T12:11:05;359.30;1689.60
55701;DHT22;41604;43.142;20.512;2024-03-08T12:13:32;359.30;1689.60
55701;DHT22;41604;43.142;20.512;2024-03-08T12:16:00;359.20;1664.00
55701;DHT22;41604;43.142;20.512;2024-03-08T12:18:33;359.30;1638.40
55701;DHT22;41604;43.142;20.512;2024-03-08T12:21:10;359.30;1638.40
55701;DHT22;41604;43.142;20.512;2024-03-08T12:23:37;359.30;1664.00
55701;DHT22;41604;43.142;20.512;2024-03-08T12:26:22;384.00;1664.00
55701;DHT22;41604;43.142;20.512;2024-03-08T12:28:49;384.10;1638.40
55701;DHT22;41604;43.142;20.512;2024-03-08T12:36:18;384.70;1587.20
55701;DHT22;41604;43.142;20.512;2024-03-08T12:38:47;384.70;1817.60
55701;DHT22;41604;43.142;20.512;2024-03-08T12:41:16;384.50;1587.20
55701;DHT22;41604;43.142;20.512;2024-03-08T12:43:44;384.50;1536.00
55701;DHT22;41604;43.142;20.512;2024-03-08T12:46:20;384.50;1510.40
55701;DHT22;41604;43.142;20.512;2024-03-08T12:48:46;384.40;1561.60
55701;DHT22;41604;43.142;20.512;2024-03-08T12:51:17;384.40;1536.00
55701;DHT22;41604;43.142;20.512;2024-03-08T12:53:44;384.40;1561.60
55701;DHT22;41604;43.142;20.512;2024-03-08T12:56:11;384.40;1536.00
55701;DHT22;41604;43.142;20.512;2024-03-08T12:58:37;384.40;1536.00
55701;DHT22;41604;43.142;20.512;2024-03-08T13:01:06;384.40;1510.40
55701;DHT22;41604;43.142;20.512;2024-03-08T13:03:36;384.40;1484.80
55701;DHT22;41604;43.142;20.512;2024-03-08T13:06:05;384.30;1510.40
55701;DHT22;41604;43.142;20.512;2024-03-08T13:08:37;384.10;1484.80
55701;DHT22;41604;43.142;20.512;2024-03-08T13:11:05;384.10;1536.00
55701;DHT22;41604;43.142;20.512;2024-03-08T13:13:32;384.30;1536.00
55701;DHT22;41604;43.142;20.512;2024-03-08T13:16:03;384.30;1536.00
55701;DHT22;41604;43.142;20.512;2024-03-08T13:18:29;384.20;1536.00
55701;DHT22;41604;43.142;20.512;2024-03-08T13:20:55;384.10;1536.00
55701;DHT22;41604;43.142;20.512;2024-03-08T13:23:23;384.00;1561.60
55701;DHT22;41604;43.142;20.512;2024-03-08T13:25:49;384.00;1587.20
55701;DHT22;41604;43.142;20.512;2024-03-08T13:28:15;384.00;1561.60
55701;DHT22;41604;43.142;20.512;2024-03-08T13:30:42;359.30;1587.20
55701;DHT22;41604;43.142;20.512;2024-03-08T13:33:09;359.30;1587.20
55701;DHT22;41604;43.142;20.512;2024-03-08T13:35:38;384.00;1587.20
55701;DHT22;41604;43.142;20.512;2024-03-08T13:38:06;359.30;1587.20
55701;DHT22;41604;43.142;20.512;2024-03-08T13:40:34;384.00;1587.20
55701;DHT22;41604;43.142;20.512;2024-03-08T13:43:00;384.00;1587.20
55701;DHT22;41604;43.142;20.512;2024-03-08T13:45:26;384.00;1587.20
55701;DHT22;41604;43.142;20.512;2024-03-08T14:50:27;384.00;1587.20
55701;DHT22;41604;43.142;20.512;2024-03-08T14:52:59;307.30;2073.60
55701;DHT22;41604;43.142;20.512;2024-03-08T14:55:26;282.50;2048.00
55701;DHT22;41604;43.142;20.512;2024-03-08T14:57:55;282.50;2073.60
55701;DHT22;41604;43.142;20.512;2024-03-08T15:03:13;282.20;2099.20
55701;DHT22;41604;43.142;20.512;2024-03-08T15:05:41;282.20;2124.80
55701;DHT22;41604;43.142;20.512;2024-03-08T15:08:13;282.10;2150.40
55701;DHT22;41604;43.142;20.512;2024-03-08T15:10:48;282.10;2150.40
55701;DHT22;41604;43.142;20.512;2024-03-08T15:13:26;282.00;2176.00
55701;DHT22;41604;43.142;20.512;2024-03-08T15:16:11;282.00;2150.40
55701;DHT22;41604;43.142;20.512;2024-03-08T15:18:43;282.00;2150.40
55701;DHT22;41604;43.142;20.512;2024-03-08T15:21:13;282.00;2150.40
55701;DHT22;41604;43.142;20.512;2024-03-08T15:23:47;282.00;2150.40
55701;DHT22;41604;43.142;20.512;2024-03-08T15:26:22;282.10;2124.80
55701;DHT22;41604;43.142;20.512;2024-03-08T15:28:47;282.10;2124.80
55701;DHT22;41604;43.142;20.512;2024-03-08T15:31:17;282.10;2150.40
55701;DHT22;41604;43.142;20.512;2024-03-08T15:33:46;282.10;2150.40
55701;DHT22;41604;43.142;20.512;2024-03-08T15:36:17;282.00;2150.40
55701;DHT22;41604;43.142;20.512;2024-03-08T15:38:46;282.10;2150.40
55701;DHT22;41604;43.142;20.512;2024-03-08T15:41:13;282.00;2150.40
55701;DHT22;41604;43.142;20.512;2024-03-08T15:43:39;281.80;2176.00
55701;DHT22;41604;43.142;20.512;2024-03-08T15:46:06;281.70;2176.00
55701;DHT22;41604;43.142;20.512;2024-03-08T15:53:36;281.60;2201.60
55701;DHT22;41604;43.142;20.512;2024-03-08T15:56:06;256.70;2201.60
55701;DHT22;41604;43.142;20.512;2024-03-08T15:58:33;256.70;2201.60
55701;DHT22;41604;43.142;20.512;2024-03-08T16:01:01;256.60;2201.60
55701;DHT22;41604;43.142;20.512;2024-03-08T16:05:56;256.50;2227.20
55701;DHT22;41604;43.142;20.512;2024-03-08T16:08:23;256.30;2227.20
55701;DHT22;41604;43.142;20.512;2024-03-08T16:10:51;256.30;2252.80
55701;DHT22;41604;43.142;20.512;2024-03-08T16:13:24;256.20;2252.80
55701;DHT22;41604;43.142;20.512;2024-03-08T16:15:54;256.20;2252.80
55701;DHT22;41604;43.142;20.512;2024-03-08T16:18:21;256.20;2252.80
55701;DHT22;41604;43.142;20.512;2024-03-08T16:20:54;256.10;2252.80
55701;DHT22;41604;43.142;20.512;2024-03-08T16:23:21;256.00;2252.80
55701;DHT22;41604;43.142;20.512;2024-03-08T16:25:47;256.10;2252.80
55701;DHT22;41604;43.142;20.512;2024-03-08T16:28:13;256.00;2252.80
55701;DHT22;41604;43.142;20.512;2024-03-08T16:30:40;256.00;2252.80
55701;DHT22;41604;43.142;20.512;2024-03-08T16:33:23;231.30;2252.80
55701;DHT22;41604;43.142;20.512;2024-03-08T16:35:52;231.30;2252.80
55701;DHT22;41604;43.142;20.512;2024-03-08T16:38:19;231.30;2252.80
55701;DHT22;41604;43.142;20.512;2024-03-08T16:40:49;231.20;2252.80
55701;DHT22;41604;43.142;20.512;2024-03-08T16:43:18;231.20;2252.80
55701;DHT22;41604;43.142;20.512;2024-03-08T16:45:46;231.10;2252.80
55701;DHT22;41604;43.142;20.512;2024-03-08T16:48:13;231.10;2252.80